Ning Jing Hai — VRQG5 — position and weather

sailwx.info

Track history (hours):
 
Tides and Currents Weather Stations Pressure Air Temp Water Temp Dewpoint Dewpoint Depression Visibility Wind Speed Wind Dir Waves Ship Positions

Ning Jing Hai

Last reported at 2017-Oct-12 14:21 UTC. Time now 2017-Oct-19 19:58 UTC.
Position S 25°05' W 045°26'.

Length 199 m; draft 11.4 m.

Type: Cargo ship. MMSI: 477636800.

Date/timePositionNaut miles runAvg speedWind from/ knotsBaromVisibWave heightAir tempDewpointWater temp
2017-Oct-12 14:21S 25°05' W 045°26'1614.4
2017-Oct-12 13:15S 24°59' W 045°10'414.1
2017-Oct-12 13:00S 24°58' W 045°07'714.2
2017-Oct-12 12:31S 24°56' W 044°59'814.4
2017-Oct-12 11:55S 24°53' W 044°51'815.3
2017-Oct-12 11:25S 24°50' W 044°43'715.4
2017-Oct-12 10:57S 24°47' W 044°36'715.1
2017-Oct-12 10:29S 24°44' W 044°28'714.8
2017-Oct-12 09:59S 24°41' W 044°21'  
Track history (hours):
 
Tides and Currents Weather Stations Pressure Air Temp Water Temp Dewpoint Dewpoint Depression Visibility Wind Speed Wind Dir Waves Ship Positions

Ning Jing Hai

Last reported at 2017-Oct-12 14:21 UTC. Time now 2017-Oct-19 19:58 UTC.
Position S 25°05' W 045°26'.

Length 199 m; draft 11.4 m.

Type: Cargo ship. MMSI: 477636800.

Date/timePositionNaut miles runAvg speedWind from/ knotsBaromVisibWave heightAir tempDewpointWater temp
2017-Oct-12 14:21S 25°05' W 045°26'1614.4
2017-Oct-12 13:15S 24°59' W 045°10'414.1
2017-Oct-12 13:00S 24°58' W 045°07'714.2
2017-Oct-12 12:31S 24°56' W 044°59'814.4
2017-Oct-12 11:55S 24°53' W 044°51'815.3
2017-Oct-12 11:25S 24°50' W 044°43'715.4
2017-Oct-12 10:57S 24°47' W 044°36'715.1
2017-Oct-12 10:29S 24°44' W 044°28'714.8
2017-Oct-12 09:59S 24°41' W 044°21'  

Dump ship's entire track history